createdAt,value
2022-11-12T00:03:05.071Z,12.32
2022-11-12T00:13:07.816Z,10.35
2022-11-12T00:23:11.798Z,14.05
2022-11-12T00:33:14.437Z,12.18
2022-11-12T00:43:18.501Z,9.63
2022-11-12T00:53:21.101Z,16.08
2022-11-12T01:03:25.605Z,13.57
2022-11-12T01:13:28.317Z,15.02
2022-11-12T01:23:33.778Z,11.02
2022-11-12T01:33:36.479Z,9.50
2022-11-12T01:43:40.495Z,11.10
2022-11-12T01:53:46.810Z,10.68
2022-11-12T02:03:50.797Z,12.73
2022-11-12T02:14:01.718Z,10.07
2022-11-12T02:34:09.284Z,8.27
2022-11-12T02:44:13.249Z,8.32
2022-11-12T02:54:15.858Z,8.93
2022-11-12T03:04:19.878Z,9.10
2022-11-12T03:14:23.072Z,6.68
2022-11-12T03:24:28.113Z,11.18
2022-11-12T03:34:30.774Z,11.88
2022-11-12T03:44:35.657Z,7.68
2022-11-12T03:54:38.411Z,9.18
2022-11-12T04:04:59.850Z,7.18
2022-11-12T04:15:02.492Z,7.40
2022-11-12T04:25:24.638Z,6.80
2022-11-12T04:35:28.522Z,4.95
2022-11-12T04:45:32.519Z,10.95
2022-11-12T04:55:35.357Z,7.28
2022-11-12T05:05:39.311Z,8.18
2022-11-12T05:15:41.937Z,8.07
2022-11-12T05:25:45.890Z,6.22
2022-11-12T05:35:48.523Z,7.03
2022-11-12T05:45:52.541Z,7.85
2022-11-12T05:55:55.168Z,9.35
2022-11-12T06:05:59.369Z,8.60
2022-11-12T06:16:02.047Z,8.40
2022-11-12T06:26:06.161Z,9.52
2022-11-12T06:36:10.035Z,7.28
2022-11-12T06:46:15.990Z,10.68
2022-11-12T06:56:18.932Z,10.68
2022-11-12T07:06:22.899Z,13.82
2022-11-12T07:16:25.618Z,12.02
2022-11-12T07:26:29.588Z,13.23
2022-11-12T07:36:32.219Z,13.23
2022-11-12T07:46:36.316Z,12.02
2022-11-12T07:56:38.956Z,11.45
2022-11-12T08:06:43.094Z,14.02
2022-11-12T08:16:46.578Z,14.23
2022-11-12T08:26:50.526Z,13.45
2022-11-12T08:36:53.158Z,13.65
2022-11-12T08:46:57.191Z,15.15
2022-11-12T08:56:59.862Z,17.80
2022-11-12T09:07:05.179Z,18.67
2022-11-12T09:17:09.622Z,14.20
2022-11-12T09:27:13.702Z,13.80
2022-11-12T09:37:16.407Z,14.35
2022-11-12T09:47:24.510Z,17.92
2022-11-12T09:57:27.196Z,20.02
2022-11-12T10:07:43.534Z,13.57
2022-11-12T10:17:52.423Z,16.15
2022-11-12T10:27:57.433Z,16.42
2022-11-12T10:38:03.544Z,15.40
2022-11-12T10:48:27.003Z,19.67
2022-11-12T10:58:30.550Z,13.93
2022-11-12T11:08:38.088Z,13.95
2022-11-12T11:18:43.623Z,12.95
2022-11-12T11:28:56.396Z,14.98
2022-11-12T11:39:03.294Z,15.20
2022-11-12T11:49:23.863Z,13.00
2022-11-12T11:59:40.011Z,12.80
2022-11-12T12:09:52.126Z,14.73
2022-11-12T12:20:06.231Z,14.90
2022-11-12T12:30:19.254Z,13.98
2022-11-12T12:40:24.538Z,13.73
2022-11-12T12:50:29.076Z,14.02
2022-11-12T13:00:39.236Z,17.42
2022-11-12T13:10:52.755Z,13.98
2022-11-12T13:21:12.163Z,12.20
2022-11-12T13:31:28.565Z,11.50
2022-11-12T13:41:48.647Z,15.75
2022-11-12T13:51:53.225Z,10.93
2022-11-12T14:01:56.736Z,11.95
2022-11-12T14:12:24.595Z,12.43
2022-11-12T14:22:36.289Z,14.13
2022-11-12T14:32:42.158Z,15.40
2022-11-12T14:42:45.191Z,13.15
2022-11-12T14:52:52.087Z,16.25
2022-11-12T15:02:59.542Z,17.17
2022-11-12T15:13:09.341Z,20.13
2022-11-12T15:23:18.671Z,28.20
2022-11-12T15:43:29.452Z,16.23
2022-11-12T15:53:33.623Z,25.77
2022-11-12T16:03:36.243Z,22.23
2022-11-12T16:13:40.476Z,25.67
2022-11-12T16:23:43.098Z,24.23
2022-11-12T16:33:47.093Z,28.42
2022-11-12T16:43:49.693Z,21.50
2022-11-12T16:53:53.623Z,23.27
2022-11-12T17:03:58.088Z,21.88
2022-11-12T17:14:02.564Z,20.60
2022-11-12T17:24:05.417Z,26.73
2022-11-12T17:34:09.395Z,21.48
2022-11-12T17:44:16.912Z,21.45
2022-11-12T17:54:21.571Z,20.55
2022-11-12T18:04:25.110Z,23.50
2022-11-12T18:14:30.525Z,23.15
2022-11-12T18:24:33.195Z,23.83
2022-11-12T18:34:41.742Z,29.15
2022-11-12T18:44:44.420Z,19.05
2022-11-12T18:54:48.461Z,18.23
2022-11-12T19:04:51.107Z,17.75
2022-11-12T19:14:55.234Z,20.08
2022-11-12T19:24:57.882Z,22.23
2022-11-12T19:35:01.932Z,20.05
2022-11-12T19:45:05.567Z,17.10
2022-11-12T19:55:09.903Z,17.52
2022-11-12T20:05:12.510Z,20.13
2022-11-12T20:15:16.463Z,22.10
2022-11-12T20:25:19.229Z,24.63
2022-11-12T20:35:23.418Z,28.00
2022-11-12T20:45:27.111Z,25.20
2022-11-12T20:55:32.642Z,24.95
2022-11-12T21:05:35.476Z,22.15
2022-11-12T21:15:39.504Z,21.95
2022-11-12T21:25:42.307Z,24.60
2022-11-12T21:35:52.625Z,27.00
2022-11-12T21:45:55.476Z,35.53
2022-11-12T21:56:03.869Z,27.10
2022-11-12T22:06:08.019Z,23.23
2022-11-12T22:16:14.717Z,19.88
2022-11-12T22:26:20.532Z,16.55
2022-11-12T22:36:26.507Z,12.32
2022-11-12T22:46:30.733Z,19.50
2022-11-12T22:56:34.719Z,13.35
2022-11-12T23:06:37.508Z,12.32
2022-11-12T23:16:41.650Z,12.13
2022-11-12T23:26:44.343Z,15.13
2022-11-12T23:36:48.364Z,11.35
2022-11-12T23:46:51.037Z,15.02
2022-11-12T23:56:55.139Z,13.32
